Overview Statistics Trail Chart Weather Telemetry Raw packets
 

This is the latest recevied telemetry packets stored in our database for station/object IK5ZAG-15. If no packets are shown the sender has not sent any telemetry packets the latest 10 day(s).

Telemetry packets is used to share measurements like repeteater parameters, battery voltage, radiation readings (or any other measurements).

<< 1 2 3 4 >>
Time Press* Temp.in* Hum* QNH* Temp.out*
1788603048 1009.2 hPa 29.3 C deg 66.2 % 1011.3 hPa 0 C deg
1788601182 1009.2 hPa 29.3 C deg 65.9 % 1011.3 hPa 0 C deg
1788599351 1009 hPa 29.2 C deg 65.7 % 1011.1 hPa 0 C deg
1788597521 1009 hPa 29 C deg 65.9 % 1011.1 hPa 0 C deg
1788595691 1008.8 hPa 29 C deg 66.1 % 1010.8 hPa 0 C deg
1788593861 1008.8 hPa 28.7 C deg 66.3 % 1010.8 hPa 0 C deg
1788592031 1008.4 hPa 28.8 C deg 66.6 % 1010.5 hPa 0 C deg
1788590201 1008.4 hPa 28.7 C deg 67.3 % 1010.4 hPa 0 C deg
1788588371 1008.1 hPa 28.5 C deg 67.8 % 1010.2 hPa 0 C deg
1788586540 1008.1 hPa 28.4 C deg 65.6 % 1010.1 hPa 0 C deg
1788584710 1008 hPa 28.6 C deg 67.1 % 1010.1 hPa 0 C deg
1788582880 1008 hPa 28.6 C deg 66.5 % 1010 hPa 0 C deg
1788581050 1008 hPa 28.7 C deg 65.8 % 1010 hPa 0 C deg
1788579220 1007.9 hPa 28.5 C deg 61.5 % 1010 hPa 0 C deg
1788577390 1008.1 hPa 28.7 C deg 61.8 % 1010.1 hPa 0 C deg
1788575560 1008.1 hPa 28.7 C deg 60.3 % 1010.1 hPa 0 C deg
1788573730 1008.2 hPa 28.8 C deg 59 % 1010.2 hPa 0 C deg
1788571899 1008 hPa 28.8 C deg 58.3 % 1010 hPa 0 C deg
1788570069 1007.8 hPa 28.9 C deg 57.1 % 1009.9 hPa 0 C deg
1788568239 1008.1 hPa 29 C deg 58.4 % 1010.1 hPa 0 C deg
1788566409 1008.2 hPa 29.2 C deg 61.5 % 1010.3 hPa 0 C deg
1788564579 1008.5 hPa 29.3 C deg 63.9 % 1010.6 hPa 0 C deg
1788562749 1008.6 hPa 29.4 C deg 65.4 % 1010.7 hPa 0 C deg
1788560919 1008.7 hPa 29.5 C deg 65.6 % 1010.7 hPa 0 C deg
1788559089 1008.8 hPa 29.6 C deg 66.2 % 1010.9 hPa 0 C deg
*Used Equation Coefficients:
Press: 0, 1, 0
Temp.in: 0, 1, 0
Hum: 0, 1, 0
QNH: 0, 1, 0
Temp.out: 0, 1, 0

  • The parameter names for the analog channels will be Value1, Value2, Value3 (up to Value5) if station has not sent a PARAM-packet that specifies the parameter names for each analog channel.
  • Each analog value is a decimal number between 000 and 255 (according to APRS specifications). The receiver use the telemetry equation coefficientsto to restore the original sensor values. If no EQNS-packet with equation coefficients is sent we will show the values as is (this corresponds to the equation coefficients a=0, b=1 and c=0).
    The sent equation coefficients is used in the equation: a * value2 + b * value + c.
  • The units for the analog values will not be shown if station has not sent a UNIT-packet specifying what unit's to use.
  • The parameter names for the digital bits will be Bit1, Bit2, Bit3 (up to Bit8) if station has not sent a PARAM-packet that specifies the parameter names for each digital bit.
  • All bit labels will be named "On" if station has not sent a UNIT-packet that specifies the label of each bit.
  • A bit is considered to be On when the bit is 1 if station has not sent a BITS-packet that specifies another "Bit sense" (a BITS-packet specify the state of the bits that match the BIT labels)